Time;durP1;ratioP1;P1;durP2;ratioP2;P2;SDS_P1;SDS_P2;PMS_P1;PMS_P2;Temp;Humidity;BMP_temperature;BMP_pressure;BME280_temperature;BME280_humidity;BME280_pressure;Samples;Min_cycle;Max_cycle;Signal;HPM_P1;HPM_P2
2023/05/07 00:00:03;;;;;;;32.17;22.45;;;;;;;;;;5053917;28;20051;-70
2023/05/07 00:02:30;;;;;;;31.20;22.95;;;;;;;;;;5068901;28;20041;-70
2023/05/07 00:04:56;;;;;;;32.13;21.88;;;;;;;;;;5072246;28;20044;-70
2023/05/07 00:07:22;;;;;;;34.85;23.38;;;;;;;;;;5062862;28;20056;-70
2023/05/07 00:09:48;;;;;;;35.17;23.60;;;;;;;;;;5072067;28;20106;-70
2023/05/07 00:12:14;;;;;;;32.92;22.92;;;;;;;;;;5057276;28;20044;-70
2023/05/07 00:14:40;;;;;;;31.05;22.05;;;;;;;;;;5055892;28;20471;-70
2023/05/07 00:17:06;;;;;;;33.75;22.88;;;;;;;;;;5056138;28;20071;-71
2023/05/07 00:19:32;;;;;;;32.47;22.35;;;;;;;;;;5056583;28;20048;-70
2023/05/07 00:21:58;;;;;;;31.40;22.17;;;;;;;;;;5073032;28;20088;-70
2023/05/07 00:24:24;;;;;;;33.92;23.63;;;;;;;;;;5072584;28;20040;-70
2023/05/07 00:26:51;;;;;;;34.08;23.95;;;;;;;;;;5073091;28;20048;-70
2023/05/07 00:29:17;;;;;;;35.22;22.85;;;;;;;;;;5057994;28;20464;-70
2023/05/07 00:31:43;;;;;;;33.80;22.63;;;;;;;;;;5054980;28;20063;-70
2023/05/07 00:34:09;;;;;;;38.17;23.05;;;;;;;;;;5060130;28;20054;-70
2023/05/07 00:36:35;;;;;;;35.72;23.67;;;;;;;;;;5048419;28;20040;-70
2023/05/07 00:39:03;;;;;;;32.30;23.58;;;;;;;;;;5046329;28;20132;-70
2023/05/07 00:41:30;;;;;;;35.45;24.20;;;;;;;;;;5061139;28;20470;-70
2023/05/07 00:43:56;;;;;;;33.28;23.58;;;;;;;;;;5062585;28;20099;-70
2023/05/07 00:46:23;;;;;;;31.83;22.70;;;;;;;;;;5059538;28;20041;-70
2023/05/07 00:48:50;;;;;;;36.30;24.55;;;;;;;;;;5065677;28;20517;-70
2023/05/07 00:51:17;;;;;;;34.85;24.20;;;;;;;;;;5075960;28;20094;-70
2023/05/07 00:53:43;;;;;;;34.15;23.88;;;;;;;;;;5073266;28;20063;-70
2023/05/07 00:56:09;;;;;;;32.65;23.08;;;;;;;;;;5068730;28;20037;-70
2023/05/07 00:58:36;;;;;;;35.03;23.45;;;;;;;;;;5065722;28;20040;-70
2023/05/07 01:01:02;;;;;;;33.78;24.50;;;;;;;;;;5063304;28;20045;-70
2023/05/07 01:03:28;;;;;;;32.80;22.88;;;;;;;;;;5072185;28;20044;-70
2023/05/07 01:05:55;;;;;;;34.72;24.35;;;;;;;;;;5046311;28;20089;-70
2023/05/07 01:08:24;;;;;;;35.10;23.83;;;;;;;;;;5057983;28;20048;-70
2023/05/07 01:10:51;;;;;;;32.97;24.38;;;;;;;;;;5029609;28;20454;-70
2023/05/07 01:13:17;;;;;;;40.22;24.90;;;;;;;;;;5055361;28;20371;-70
2023/05/07 01:15:43;;;;;;;32.55;22.02;;;;;;;;;;5072429;28;20123;-70
2023/05/07 01:18:10;;;;;;;37.58;24.75;;;;;;;;;;5068508;28;20040;-70
2023/05/07 01:20:36;;;;;;;33.78;22.77;;;;;;;;;;5048292;28;20083;-70
2023/05/07 01:23:03;;;;;;;35.63;24.30;;;;;;;;;;5023081;28;20060;-70
2023/05/07 01:25:30;;;;;;;35.38;23.95;;;;;;;;;;5053704;28;20060;-70
2023/05/07 01:27:56;;;;;;;36.83;24.70;;;;;;;;;;5038156;28;20048;-70
2023/05/07 01:30:23;;;;;;;34.85;24.77;;;;;;;;;;5068339;28;20056;-70
2023/05/07 01:32:52;;;;;;;40.72;26.27;;;;;;;;;;5056728;28;20033;-70
2023/05/07 01:35:25;;;;;;;35.83;24.05;;;;;;;;;;5064827;28;20055;-70
2023/05/07 01:37:51;;;;;;;34.55;24.67;;;;;;;;;;5054882;28;20045;-70
2023/05/07 01:40:17;;;;;;;39.00;25.30;;;;;;;;;;5058060;28;20510;-70
2023/05/07 01:42:44;;;;;;;37.63;24.60;;;;;;;;;;5054724;28;20080;-70
2023/05/07 01:45:10;;;;;;;35.42;23.35;;;;;;;;;;5068987;28;20041;-70
2023/05/07 01:47:39;;;;;;;35.58;25.27;;;;;;;;;;5057135;28;20049;-70
2023/05/07 01:50:07;;;;;;;37.30;25.15;;;;;;;;;;5073431;28;20037;-70
2023/05/07 01:52:34;;;;;;;37.08;25.10;;;;;;;;;;5055514;28;20059;-70
2023/05/07 01:55:00;;;;;;;41.58;25.98;;;;;;;;;;5049649;28;20048;-70
2023/05/07 01:57:26;;;;;;;39.05;25.35;;;;;;;;;;5077440;28;20071;-70
2023/05/07 01:59:52;;;;;;;40.63;27.17;;;;;;;;;;5058442;28;20040;-70
2023/05/07 02:02:18;;;;;;;39.90;26.00;;;;;;;;;;5058882;28;20059;-70
2023/05/07 02:04:44;;;;;;;39.40;27.27;;;;;;;;;;5071935;28;20036;-70
2023/05/07 02:07:10;;;;;;;39.03;25.85;;;;;;;;;;5061385;28;20088;-71
2023/05/07 02:09:36;;;;;;;42.92;26.70;;;;;;;;;;5035965;28;20127;-71
2023/05/07 02:12:02;;;;;;;44.85;28.63;;;;;;;;;;5036569;28;20044;-71
2023/05/07 02:14:28;;;;;;;39.65;26.70;;;;;;;;;;5044825;28;20403;-71
2023/05/07 02:16:54;;;;;;;39.97;27.65;;;;;;;;;;5053888;28;20475;-71
2023/05/07 02:19:21;;;;;;;42.95;29.35;;;;;;;;;;5070325;28;20045;-71
2023/05/07 02:21:47;;;;;;;42.95;27.58;;;;;;;;;;5072529;28;20040;-72
2023/05/07 02:24:13;;;;;;;44.45;28.85;;;;;;;;;;5065477;28;20048;-71
2023/05/07 02:26:41;;;;;;;41.15;27.88;;;;;;;;;;5053921;28;20040;-71
2023/05/07 02:29:07;;;;;;;41.60;28.35;;;;;;;;;;5062611;28;20455;-71
2023/05/07 02:31:33;;;;;;;45.35;28.42;;;;;;;;;;5063272;28;20485;-72
2023/05/07 02:34:00;;;;;;;40.97;29.42;;;;;;;;;;5053693;28;20052;-71
2023/05/07 02:36:26;;;;;;;43.25;28.48;;;;;;;;;;5056477;28;20110;-71
2023/05/07 02:38:52;;;;;;;44.53;28.70;;;;;;;;;;5053842;28;20065;-71
2023/05/07 02:41:18;;;;;;;40.53;27.75;;;;;;;;;;5072765;28;20044;-71
2023/05/07 02:43:44;;;;;;;42.22;27.83;;;;;;;;;;5054142;28;20040;-71
2023/05/07 02:46:10;;;;;;;39.53;28.45;;;;;;;;;;5072926;28;20124;-71
2023/05/07 02:48:37;;;;;;;43.20;28.92;;;;;;;;;;5059732;28;20130;-71
2023/05/07 02:51:03;;;;;;;42.60;28.48;;;;;;;;;;5043944;28;20041;-71
2023/05/07 02:53:29;;;;;;;41.80;28.73;;;;;;;;;;5060350;28;20073;-71
2023/05/07 02:55:56;;;;;;;42.95;28.80;;;;;;;;;;5039338;28;20044;-71
2023/05/07 02:58:22;;;;;;;41.35;27.83;;;;;;;;;;5065169;28;20041;-71
2023/05/07 03:00:48;;;;;;;38.28;26.20;;;;;;;;;;5038870;28;20037;-71
2023/05/07 03:03:14;;;;;;;40.90;28.27;;;;;;;;;;5072220;28;20049;-71
2023/05/07 03:05:40;;;;;;;40.72;27.80;;;;;;;;;;5061834;28;20066;-71
2023/05/07 03:08:06;;;;;;;40.78;26.90;;;;;;;;;;5072030;28;20052;-71
2023/05/07 03:10:32;;;;;;;41.53;27.95;;;;;;;;;;5073339;28;20059;-71
2023/05/07 03:12:59;;;;;;;38.95;27.27;;;;;;;;;;5054856;28;20049;-71
2023/05/07 03:15:25;;;;;;;40.92;28.50;;;;;;;;;;5073455;28;20080;-71
2023/05/07 03:17:51;;;;;;;40.17;27.75;;;;;;;;;;5033068;28;20080;-71
2023/05/07 03:20:17;;;;;;;39.30;27.67;;;;;;;;;;5035645;28;20041;-71
2023/05/07 03:22:43;;;;;;;40.15;26.92;;;;;;;;;;5053426;28;20045;-71
2023/05/07 03:25:10;;;;;;;40.88;25.77;;;;;;;;;;5066527;28;20364;-71
2023/05/07 03:27:36;;;;;;;37.85;25.42;;;;;;;;;;5072309;28;20048;-71
2023/05/07 03:30:02;;;;;;;41.22;27.00;;;;;;;;;;5035163;28;20179;-71
2023/05/07 03:32:28;;;;;;;40.13;26.73;;;;;;;;;;5063321;28;20051;-71
2023/05/07 03:34:55;;;;;;;37.33;25.67;;;;;;;;;;5073074;28;20080;-71
2023/05/07 03:37:21;;;;;;;39.67;26.25;;;;;;;;;;5066978;28;20059;-71
2023/05/07 03:39:47;;;;;;;40.83;26.48;;;;;;;;;;5072729;28;20032;-71
2023/05/07 03:42:13;;;;;;;41.58;27.05;;;;;;;;;;5074474;28;20059;-71
2023/05/07 03:44:39;;;;;;;43.92;27.70;;;;;;;;;;5065554;28;20052;-71
2023/05/07 03:47:10;;;;;;;40.85;26.15;;;;;;;;;;5037199;28;20478;-71
2023/05/07 03:49:36;;;;;;;40.22;26.98;;;;;;;;;;5056088;28;20074;-72
2023/05/07 03:52:02;;;;;;;44.85;27.80;;;;;;;;;;5056391;28;20049;-71
2023/05/07 03:54:28;;;;;;;46.17;29.13;;;;;;;;;;5057018;28;20049;-72
2023/05/07 03:56:54;;;;;;;45.63;28.88;;;;;;;;;;5064444;28;20048;-72
2023/05/07 03:59:20;;;;;;;40.85;25.85;;;;;;;;;;5056704;28;20053;-72
2023/05/07 04:01:46;;;;;;;46.13;29.50;;;;;;;;;;5065497;28;20363;-72
2023/05/07 04:04:12;;;;;;;46.35;28.05;;;;;;;;;;5071671;28;20041;-72
2023/05/07 04:06:38;;;;;;;44.63;27.58;;;;;;;;;;5056144;28;20064;-72
2023/05/07 04:09:04;;;;;;;43.33;27.38;;;;;;;;;;5056785;28;20057;-72
2023/05/07 04:11:30;;;;;;;47.47;28.27;;;;;;;;;;5056641;28;20045;-71
2023/05/07 04:13:56;;;;;;;42.40;28.95;;;;;;;;;;5056316;28;20407;-71
2023/05/07 04:16:22;;;;;;;43.25;27.95;;;;;;;;;;5061339;28;20040;-72
2023/05/07 04:18:48;;;;;;;42.33;26.45;;;;;;;;;;5057202;28;20048;-72
2023/05/07 04:21:15;;;;;;;42.15;27.20;;;;;;;;;;5065293;28;20044;-72
2023/05/07 04:23:41;;;;;;;46.90;27.65;;;;;;;;;;5068931;28;20481;-72
2023/05/07 04:26:07;;;;;;;43.83;27.52;;;;;;;;;;5038224;28;20060;-72
2023/05/07 04:28:33;;;;;;;42.83;27.25;;;;;;;;;;5048284;28;20047;-72
2023/05/07 04:30:59;;;;;;;44.75;27.98;;;;;;;;;;5076109;28;20126;-72
2023/05/07 04:33:25;;;;;;;47.85;27.33;;;;;;;;;;5066515;28;20076;-72
2023/05/07 04:35:51;;;;;;;43.40;27.90;;;;;;;;;;5055988;28;20044;-72
2023/05/07 04:38:18;;;;;;;46.72;28.80;;;;;;;;;;5038229;28;20052;-72
2023/05/07 04:40:44;;;;;;;44.35;27.45;;;;;;;;;;5056465;28;20124;-72
2023/05/07 04:43:10;;;;;;;47.13;29.02;;;;;;;;;;5066216;28;20045;-72
2023/05/07 04:45:37;;;;;;;47.30;29.15;;;;;;;;;;5055382;28;20076;-72
2023/05/07 04:48:03;;;;;;;45.28;29.20;;;;;;;;;;5054746;28;20056;-72
2023/05/07 04:50:30;;;;;;;43.38;28.55;;;;;;;;;;5075147;28;20040;-72
2023/05/07 04:52:56;;;;;;;44.30;28.58;;;;;;;;;;5052304;28;20481;-72
2023/05/07 04:55:22;;;;;;;47.65;28.45;;;;;;;;;;5071157;28;20048;-72
2023/05/07 04:57:48;;;;;;;45.38;28.27;;;;;;;;;;5074874;28;20048;-72
2023/05/07 05:00:14;;;;;;;45.53;27.17;;;;;;;;;;5065964;28;20052;-72
2023/05/07 05:02:41;;;;;;;43.10;28.00;;;;;;;;;;5055406;28;20072;-72
2023/05/07 05:05:07;;;;;;;45.05;27.88;;;;;;;;;;5040280;28;20131;-72
2023/05/07 05:07:33;;;;;;;46.83;28.23;;;;;;;;;;5057406;28;20083;-72
2023/05/07 05:09:59;;;;;;;43.17;28.40;;;;;;;;;;5055887;28;20128;-72
2023/05/07 05:12:25;;;;;;;46.00;28.13;;;;;;;;;;5075509;28;20493;-72
2023/05/07 05:14:51;;;;;;;47.13;29.70;;;;;;;;;;5075270;28;20052;-72
2023/05/07 05:17:17;;;;;;;41.88;27.38;;;;;;;;;;5074503;28;20567;-72
2023/05/07 05:19:43;;;;;;;46.88;28.33;;;;;;;;;;5056879;28;20530;-72
2023/05/07 05:22:09;;;;;;;42.22;25.85;;;;;;;;;;5079303;28;20044;-72
2023/05/07 05:24:35;;;;;;;43.05;27.25;;;;;;;;;;5077275;28;20041;-72
2023/05/07 05:27:02;;;;;;;42.10;27.35;;;;;;;;;;5075033;28;20048;-72
2023/05/07 05:29:28;;;;;;;39.40;25.35;;;;;;;;;;5069917;28;20117;-72
2023/05/07 05:31:55;;;;;;;39.85;26.60;;;;;;;;;;5054228;28;20528;-72
2023/05/07 05:34:21;;;;;;;40.95;26.80;;;;;;;;;;5060473;28;20110;-72
2023/05/07 05:36:48;;;;;;;43.22;26.17;;;;;;;;;;5066678;28;20041;-72
2023/05/07 05:39:14;;;;;;;38.22;25.15;;;;;;;;;;5070276;28;20063;-72
2023/05/07 05:41:40;;;;;;;42.83;27.02;;;;;;;;;;5059839;28;20045;-73
2023/05/07 05:44:07;;;;;;;39.35;26.17;;;;;;;;;;5054420;28;20099;-75
2023/05/07 05:46:33;;;;;;;43.80;25.92;;;;;;;;;;5058525;28;20045;-73
2023/05/07 05:48:59;;;;;;;39.13;26.13;;;;;;;;;;5049738;28;20040;-72
2023/05/07 05:51:26;;;;;;;39.65;26.05;;;;;;;;;;5073703;28;20041;-72
2023/05/07 05:53:52;;;;;;;39.20;25.35;;;;;;;;;;5057173;28;20127;-77
2023/05/07 05:56:18;;;;;;;40.47;27.02;;;;;;;;;;5062480;28;20048;-73
2023/05/07 05:58:44;;;;;;;35.20;23.88;;;;;;;;;;5054176;28;20056;-73
2023/05/07 06:01:11;;;;;;;38.55;25.58;;;;;;;;;;5054180;28;20060;-73
2023/05/07 06:03:37;;;;;;;43.58;26.65;;;;;;;;;;5061264;28;20470;-73
2023/05/07 06:06:03;;;;;;;38.17;26.60;;;;;;;;;;5054181;28;20041;-73
2023/05/07 06:08:35;;;;;;;40.03;27.42;;;;;;;;;;5064969;28;20056;-73
2023/05/07 06:11:02;;;;;;;35.35;23.40;;;;;;;;;;5057645;28;20525;-73
2023/05/07 06:13:28;;;;;;;34.17;24.05;;;;;;;;;;5064605;28;20364;-73
2023/05/07 06:15:54;;;;;;;37.75;25.92;;;;;;;;;;5053872;28;20406;-73
2023/05/07 06:18:20;;;;;;;35.65;24.75;;;;;;;;;;5060889;28;20105;-73
2023/05/07 06:20:46;;;;;;;37.40;25.85;;;;;;;;;;5065200;28;20380;-73
2023/05/07 06:23:12;;;;;;;38.13;24.55;;;;;;;;;;5057001;28;20064;-73
2023/05/07 06:25:38;;;;;;;34.63;24.33;;;;;;;;;;5056275;28;20037;-73
2023/05/07 06:28:05;;;;;;;36.08;23.25;;;;;;;;;;5053637;28;20045;-73
2023/05/07 06:30:31;;;;;;;35.60;23.92;;;;;;;;;;5034099;28;20180;-73
2023/05/07 06:32:57;;;;;;;35.67;24.77;;;;;;;;;;5053253;28;20479;-73
2023/05/07 06:35:23;;;;;;;35.00;24.13;;;;;;;;;;5048743;28;20487;-77
2023/05/07 06:37:49;;;;;;;36.50;24.95;;;;;;;;;;5054068;28;20089;-73
2023/05/07 06:40:15;;;;;;;34.97;23.77;;;;;;;;;;5055379;28;20052;-73
2023/05/07 06:42:41;;;;;;;31.80;22.52;;;;;;;;;;5046297;28;20048;-73
2023/05/07 06:45:09;;;;;;;33.25;23.17;;;;;;;;;;5062822;28;20041;-73
2023/05/07 06:47:35;;;;;;;34.17;22.13;;;;;;;;;;5054882;28;20048;-73
2023/05/07 06:50:01;;;;;;;29.85;19.65;;;;;;;;;;5062409;28;20087;-73
2023/05/07 06:52:27;;;;;;;31.50;22.23;;;;;;;;;;5021011;28;20436;-73
2023/05/07 06:54:53;;;;;;;36.65;24.35;;;;;;;;;;5057262;28;20090;-73
2023/05/07 06:57:19;;;;;;;33.00;23.20;;;;;;;;;;5062787;28;20041;-73
2023/05/07 06:59:45;;;;;;;30.85;22.25;;;;;;;;;;5053618;28;20403;-75
2023/05/07 07:02:11;;;;;;;35.60;23.88;;;;;;;;;;5034449;28;20128;-72
2023/05/07 07:04:37;;;;;;;33.72;23.50;;;;;;;;;;5058708;28;20062;-72
2023/05/07 07:07:03;;;;;;;31.98;22.30;;;;;;;;;;5073308;28;20499;-72
2023/05/07 07:09:29;;;;;;;31.00;22.38;;;;;;;;;;5038566;28;20486;-72
2023/05/07 07:11:55;;;;;;;30.15;22.08;;;;;;;;;;5050836;28;20613;-72
2023/05/07 07:14:21;;;;;;;33.60;22.73;;;;;;;;;;5053583;28;20088;-72
2023/05/07 07:16:47;;;;;;;31.25;21.70;;;;;;;;;;5055293;28;20045;-72
2023/05/07 07:19:15;;;;;;;29.55;21.15;;;;;;;;;;5064211;28;20044;-73
2023/05/07 07:21:41;;;;;;;33.67;22.23;;;;;;;;;;5060281;28;20053;-76
2023/05/07 07:24:07;;;;;;;31.90;23.58;;;;;;;;;;5057188;28;20398;-72
2023/05/07 07:26:33;;;;;;;30.02;22.13;;;;;;;;;;5059129;28;20052;-72
2023/05/07 07:28:59;;;;;;;31.77;23.77;;;;;;;;;;5041927;28;20040;-72
2023/05/07 07:31:25;;;;;;;32.03;23.13;;;;;;;;;;5059396;28;20094;-77
2023/05/07 07:33:51;;;;;;;30.83;21.58;;;;;;;;;;5065972;28;20382;-74
2023/05/07 07:36:17;;;;;;;29.13;19.48;;;;;;;;;;5056972;28;20620;-74
2023/05/07 07:38:43;;;;;;;31.20;22.23;;;;;;;;;;5057534;28;20084;-74
2023/05/07 07:41:09;;;;;;;30.55;21.67;;;;;;;;;;5056963;28;20131;-74
2023/05/07 07:43:35;;;;;;;31.42;21.88;;;;;;;;;;5075088;28;20070;-74
2023/05/07 07:46:01;;;;;;;32.38;22.42;;;;;;;;;;5057144;28;20502;-74
2023/05/07 07:48:27;;;;;;;30.88;21.58;;;;;;;;;;5076831;28;20054;-74
2023/05/07 07:50:53;;;;;;;29.48;20.35;;;;;;;;;;5076911;28;20041;-74
2023/05/07 07:53:20;;;;;;;31.08;22.08;;;;;;;;;;5076734;28;20071;-74
2023/05/07 07:55:46;;;;;;;29.85;21.10;;;;;;;;;;5076710;28;20046;-74
2023/05/07 07:58:12;;;;;;;30.83;21.90;;;;;;;;;;5076599;28;20042;-74
2023/05/07 08:00:38;;;;;;;31.85;22.25;;;;;;;;;;5038577;28;20090;-74
2023/05/07 08:03:04;;;;;;;29.20;20.55;;;;;;;;;;5071395;28;20045;-74
2023/05/07 08:05:30;;;;;;;28.50;21.10;;;;;;;;;;5076375;28;20045;-74
2023/05/07 08:07:57;;;;;;;29.52;21.70;;;;;;;;;;5076184;28;20048;-74
2023/05/07 08:10:23;;;;;;;34.00;22.45;;;;;;;;;;5076453;28;20471;-74
2023/05/07 08:12:49;;;;;;;31.40;21.23;;;;;;;;;;5075450;28;20044;-74
2023/05/07 08:15:16;;;;;;;27.80;20.27;;;;;;;;;;5068151;28;20073;-74
2023/05/07 08:17:42;;;;;;;28.85;20.05;;;;;;;;;;5073328;28;20044;-74
2023/05/07 08:20:08;;;;;;;31.85;21.80;;;;;;;;;;5058393;28;20044;-74
2023/05/07 08:22:37;;;;;;;29.13;21.05;;;;;;;;;;5054720;28;20059;-74
2023/05/07 08:25:04;;;;;;;30.65;21.27;;;;;;;;;;5038459;28;20472;-74
2023/05/07 08:27:30;;;;;;;30.38;21.63;;;;;;;;;;5055752;28;20041;-74
2023/05/07 08:29:56;;;;;;;28.98;19.75;;;;;;;;;;5056541;28;20124;-74
2023/05/07 08:32:22;;;;;;;30.55;21.23;;;;;;;;;;5067919;28;20051;-74
2023/05/07 08:34:48;;;;;;;28.80;20.05;;;;;;;;;;5058177;28;20094;-74
2023/05/07 08:37:15;;;;;;;30.45;21.73;;;;;;;;;;5076062;28;20040;-73
2023/05/07 08:39:41;;;;;;;26.92;19.58;;;;;;;;;;5076279;28;20063;-74
2023/05/07 08:42:07;;;;;;;29.02;20.35;;;;;;;;;;5076220;28;20090;-74
2023/05/07 08:44:37;;;;;;;30.95;20.92;;;;;;;;;;5060009;28;20064;-74
2023/05/07 08:47:03;;;;;;;30.00;20.83;;;;;;;;;;5057052;28;20041;-74
2023/05/07 08:49:29;;;;;;;28.95;21.20;;;;;;;;;;5059286;28;20068;-73
2023/05/07 08:51:56;;;;;;;29.20;20.33;;;;;;;;;;5058477;28;20036;-74
2023/05/07 08:54:22;;;;;;;29.98;20.92;;;;;;;;;;5075886;28;20105;-73
2023/05/07 08:56:48;;;;;;;30.00;20.73;;;;;;;;;;5044395;28;20106;-74
2023/05/07 08:59:14;;;;;;;26.83;19.70;;;;;;;;;;5056248;28;20041;-74
2023/05/07 09:01:40;;;;;;;31.75;20.73;;;;;;;;;;5053245;28;20479;-74
2023/05/07 09:04:07;;;;;;;28.40;19.70;;;;;;;;;;5057833;28;20539;-74
2023/05/07 09:06:33;;;;;;;27.60;20.50;;;;;;;;;;5072666;28;20044;-74
2023/05/07 09:09:01;;;;;;;30.17;20.67;;;;;;;;;;5062343;28;20044;-74
2023/05/07 09:11:27;;;;;;;27.15;20.35;;;;;;;;;;5038998;28;20102;-74
2023/05/07 09:13:57;;;;;;;28.23;19.95;;;;;;;;;;5059510;28;20037;-73
2023/05/07 09:16:24;;;;;;;28.25;21.65;;;;;;;;;;5072015;28;20045;-74
2023/05/07 09:18:52;;;;;;;29.17;22.02;;;;;;;;;;5066005;28;20582;-74
2023/05/07 09:21:18;;;;;;;29.60;20.60;;;;;;;;;;5055018;28;20045;-74
2023/05/07 09:23:44;;;;;;;28.45;20.83;;;;;;;;;;5073682;28;20044;-74
2023/05/07 09:26:13;;;;;;;27.88;21.17;;;;;;;;;;5071945;28;20045;-74
2023/05/07 09:28:41;;;;;;;28.05;20.13;;;;;;;;;;5072312;28;20041;-74
2023/05/07 09:31:07;;;;;;;27.60;19.48;;;;;;;;;;5066657;28;20552;-74
2023/05/07 09:33:33;;;;;;;28.48;20.58;;;;;;;;;;5074046;28;20091;-74
2023/05/07 09:36:05;;;;;;;30.95;21.65;;;;;;;;;;5044098;28;20495;-75
2023/05/07 09:38:33;;;;;;;27.45;20.42;;;;;;;;;;5060896;28;20501;-74
2023/05/07 09:41:03;;;;;;;28.98;19.92;;;;;;;;;;5052035;28;20063;-74
2023/05/07 09:43:33;;;;;;;26.67;20.05;;;;;;;;;;5056183;28;20376;-75
2023/05/07 09:45:59;;;;;;;25.63;19.95;;;;;;;;;;5055953;28;20063;-75
2023/05/07 09:48:26;;;;;;;26.75;19.95;;;;;;;;;;5067751;28;20055;-75
2023/05/07 09:50:58;;;;;;;28.73;20.25;;;;;;;;;;5066751;28;20040;-74
2023/05/07 09:53:25;;;;;;;26.27;20.35;;;;;;;;;;5061025;28;20059;-75
2023/05/07 09:55:51;;;;;;;26.35;20.00;;;;;;;;;;5064851;28;20428;-75
2023/05/07 09:58:19;;;;;;;27.10;20.33;;;;;;;;;;5070415;28;20479;-74
2023/05/07 10:00:46;;;;;;;24.17;19.50;;;;;;;;;;5064919;28;20051;-75
2023/05/07 10:03:13;;;;;;;26.90;19.48;;;;;;;;;;5056819;28;20044;-75
2023/05/07 10:05:40;;;;;;;27.42;20.05;;;;;;;;;;5072381;28;20118;-75
2023/05/07 10:08:06;;;;;;;28.23;21.58;;;;;;;;;;5050395;28;20057;-75
2023/05/07 10:10:34;;;;;;;27.27;20.13;;;;;;;;;;5061234;28;20094;-75
2023/05/07 10:13:01;;;;;;;26.00;19.90;;;;;;;;;;5068665;28;20048;-75
2023/05/07 10:15:27;;;;;;;24.23;19.17;;;;;;;;;;5063902;28;20051;-74
2023/05/07 10:17:53;;;;;;;27.48;19.48;;;;;;;;;;5072029;28;20045;-77
2023/05/07 10:20:20;;;;;;;28.63;20.85;;;;;;;;;;5046754;28;20127;-75
2023/05/07 10:22:47;;;;;;;28.13;20.35;;;;;;;;;;5056985;28;20044;-75
2023/05/07 10:25:15;;;;;;;28.23;21.52;;;;;;;;;;5063994;28;20040;-74
2023/05/07 10:27:42;;;;;;;24.48;19.63;;;;;;;;;;5056448;28;20056;-74
2023/05/07 10:30:14;;;;;;;24.00;18.85;;;;;;;;;;5057060;28;20044;-74
2023/05/07 10:32:46;;;;;;;25.15;19.70;;;;;;;;;;5060168;28;20049;-74
2023/05/07 10:35:18;;;;;;;25.63;19.30;;;;;;;;;;5054032;28;20055;-74
2023/05/07 10:37:44;;;;;;;27.80;19.20;;;;;;;;;;5053823;28;20476;-74
2023/05/07 10:40:10;;;;;;;25.00;19.45;;;;;;;;;;5067244;28;20048;-74
2023/05/07 10:42:36;;;;;;;25.33;19.60;;;;;;;;;;5064005;28;20045;-74
2023/05/07 10:45:13;;;;;;;24.67;20.38;;;;;;;;;;5056668;28;20072;-75
2023/05/07 10:47:59;;;;;;;25.65;20.67;;;;;;;;;;5068699;28;20407;-79
2023/05/07 10:50:25;;;;;;;28.83;19.73;;;;;;;;;;5040101;28;20052;-75
2023/05/07 10:53:10;;;;;;;25.48;20.02;;;;;;;;;;5073710;28;20506;-74
2023/05/07 10:55:36;;;;;;;25.27;19.85;;;;;;;;;;5055275;28;20040;-75
2023/05/07 10:58:21;;;;;;;26.30;19.45;;;;;;;;;;5062680;28;20044;-74
2023/05/07 11:00:48;;;;;;;25.92;20.08;;;;;;;;;;5053197;28;20041;-74
2023/05/07 11:03:14;;;;;;;24.95;19.25;;;;;;;;;;5065777;28;20496;-74
2023/05/07 11:05:41;;;;;;;26.90;19.50;;;;;;;;;;5059873;28;20387;-74
2023/05/07 11:08:07;;;;;;;23.58;19.38;;;;;;;;;;5068867;28;20041;-74
2023/05/07 11:10:48;;;;;;;24.08;19.35;;;;;;;;;;5045626;28;20068;-74
2023/05/07 11:13:15;;;;;;;24.45;19.15;;;;;;;;;;5060044;28;20391;-74
2023/05/07 11:15:43;;;;;;;24.67;18.95;;;;;;;;;;5053900;28;20138;-74
2023/05/07 11:18:10;;;;;;;24.13;18.73;;;;;;;;;;5042276;28;20059;-74
2023/05/07 11:20:48;;;;;;;24.25;19.30;;;;;;;;;;5071482;28;20051;-74
2023/05/07 11:23:35;;;;;;;23.50;19.10;;;;;;;;;;5063359;28;20452;-75
2023/05/07 11:26:01;;;;;;;;;;;;;;;;;;5066564;28;20537;-75
2023/05/07 11:28:28;;;;;;;24.67;19.05;;;;;;;;;;5053444;28;19956;-75
2023/05/07 11:30:54;;;;;;;23.67;18.85;;;;;;;;;;5038943;28;20045;-75
2023/05/07 11:33:20;;;;;;;22.88;18.63;;;;;;;;;;5052682;28;20104;-74
2023/05/07 11:35:46;;;;;;;26.55;18.95;;;;;;;;;;5065633;28;20506;-75
2023/05/07 11:38:13;;;;;;;25.88;19.70;;;;;;;;;;5062619;28;20041;-75
2023/05/07 11:41:02;;;;;;;25.75;20.52;;;;;;;;;;5066699;28;20048;-75
2023/05/07 11:43:28;;;;;;;25.88;19.83;;;;;;;;;;5066435;28;20051;-75
2023/05/07 11:45:54;;;;;;;24.58;19.38;;;;;;;;;;5053102;28;20108;-75
2023/05/07 11:48:22;;;;;;;25.70;19.80;;;;;;;;;;5052967;28;20552;-75
2023/05/07 11:50:55;;;;;;;24.70;18.45;;;;;;;;;;5059058;28;20029;-75
2023/05/07 11:53:21;;;;;;;22.95;19.58;;;;;;;;;;5037031;28;20045;-74
2023/05/07 11:55:47;;;;;;;24.50;19.92;;;;;;;;;;5069569;28;20068;-75
2023/05/07 11:58:13;;;;;;;24.02;19.83;;;;;;;;;;5054820;28;20498;-75
2023/05/07 12:00:48;;;;;;;24.45;19.17;;;;;;;;;;5072838;28;20055;-75
2023/05/07 12:03:14;;;;;;;23.42;19.48;;;;;;;;;;5072100;28;20551;-75
2023/05/07 12:05:41;;;;;;;26.70;20.35;;;;;;;;;;5068399;28;20127;-75
2023/05/07 12:08:08;;;;;;;24.20;19.27;;;;;;;;;;5060201;28;20064;-75
2023/05/07 12:10:34;;;;;;;24.02;19.50;;;;;;;;;;5050256;28;20052;-75
2023/05/07 12:13:00;;;;;;;24.15;19.10;;;;;;;;;;5063850;28;20040;-75
2023/05/07 12:15:26;;;;;;;21.42;17.63;;;;;;;;;;5078605;28;20066;-75
2023/05/07 12:17:52;;;;;;;22.23;18.25;;;;;;;;;;5061298;28;20048;-75
2023/05/07 12:20:18;;;;;;;22.55;16.45;;;;;;;;;;5048527;28;20091;-75
2023/05/07 12:22:45;;;;;;;21.95;17.95;;;;;;;;;;5057220;28;20048;-75
2023/05/07 12:25:11;;;;;;;21.05;17.35;;;;;;;;;;5042632;28;20076;-75
2023/05/07 12:27:38;;;;;;;21.08;17.60;;;;;;;;;;5069452;28;20048;-75
2023/05/07 12:30:04;;;;;;;24.15;19.10;;;;;;;;;;5065864;28;20048;-75
2023/05/07 12:32:30;;;;;;;20.38;17.40;;;;;;;;;;5058391;28;20360;-75
2023/05/07 12:34:56;;;;;;;22.95;18.38;;;;;;;;;;5075875;28;20048;-75
2023/05/07 12:37:26;;;;;;;23.05;18.77;;;;;;;;;;5055041;28;20047;-75
2023/05/07 12:40:10;;;;;;;20.95;17.20;;;;;;;;;;5054386;28;20049;-75
2023/05/07 12:42:36;;;;;;;21.95;17.83;;;;;;;;;;5057285;28;20049;-75
2023/05/07 12:45:12;;;;;;;20.15;16.55;;;;;;;;;;5056647;28;20087;-75
2023/05/07 12:47:38;;;;;;;;;;;;;;;;;;5062745;28;20475;-75
2023/05/07 12:50:08;;;;;;;19.55;16.67;;;;;;;;;;5061050;28;19920;-75
2023/05/07 12:52:34;;;;;;;19.58;16.38;;;;;;;;;;5060035;28;20089;-75
2023/05/07 12:55:07;;;;;;;20.52;16.98;;;;;;;;;;5055690;28;20056;-75
2023/05/07 12:57:59;;;;;;;20.80;17.55;;;;;;;;;;5063311;28;20107;-75
2023/05/07 13:00:35;;;;;;;18.88;15.98;;;;;;;;;;5063917;28;20057;-75
2023/05/07 13:03:01;;;;;;;18.63;15.52;;;;;;;;;;5073619;28;20037;-75
2023/05/07 13:05:27;;;;;;;19.77;16.98;;;;;;;;;;5055658;28;20120;-75
2023/05/07 13:07:54;;;;;;;19.58;16.20;;;;;;;;;;5046804;28;20488;-75
2023/05/07 13:10:20;;;;;;;19.08;16.35;;;;;;;;;;5053760;28;20495;-75
2023/05/07 13:12:46;;;;;;;20.27;15.93;;;;;;;;;;5049873;28;20064;-75
2023/05/07 13:15:12;;;;;;;18.67;16.40;;;;;;;;;;5043051;28;20483;-75
2023/05/07 13:17:38;;;;;;;19.48;16.08;;;;;;;;;;5053088;28;20048;-75
2023/05/07 13:20:05;;;;;;;18.90;16.63;;;;;;;;;;5045109;28;20044;-75
2023/05/07 13:22:32;;;;;;;19.85;16.38;;;;;;;;;;5054703;28;20045;-75
2023/05/07 13:24:58;;;;;;;17.67;15.77;;;;;;;;;;5052847;28;20049;-75
2023/05/07 13:27:24;;;;;;;20.23;17.40;;;;;;;;;;5049647;28;20456;-75
2023/05/07 13:29:50;;;;;;;19.60;16.98;;;;;;;;;;5050329;28;20045;-75
2023/05/07 13:32:16;;;;;;;18.73;16.67;;;;;;;;;;5036315;28;20357;-75
2023/05/07 13:34:42;;;;;;;18.33;16.35;;;;;;;;;;5046813;28;20516;-75
2023/05/07 13:37:08;;;;;;;19.23;16.73;;;;;;;;;;5050333;28;20049;-75
2023/05/07 13:39:34;;;;;;;19.05;17.05;;;;;;;;;;5054208;28;20045;-75
2023/05/07 13:42:00;;;;;;;18.27;16.45;;;;;;;;;;5041200;28;20430;-75
2023/05/07 13:44:27;;;;;;;19.13;16.52;;;;;;;;;;5052309;28;20128;-75
2023/05/07 13:46:53;;;;;;;18.75;16.60;;;;;;;;;;5053055;28;20123;-75
2023/05/07 13:49:19;;;;;;;18.58;16.55;;;;;;;;;;5054397;28;20083;-75
2023/05/07 13:51:45;;;;;;;19.73;15.85;;;;;;;;;;5048315;28;20045;-75
2023/05/07 13:54:11;;;;;;;18.15;16.30;;;;;;;;;;5057099;28;20494;-75
2023/05/07 13:56:37;;;;;;;18.45;15.93;;;;;;;;;;5049443;28;20049;-75
2023/05/07 13:59:03;;;;;;;17.45;15.63;;;;;;;;;;5051295;28;20048;-75
2023/05/07 14:01:30;;;;;;;18.88;16.88;;;;;;;;;;5050214;28;20044;-75
2023/05/07 14:03:57;;;;;;;19.10;16.25;;;;;;;;;;5054041;28;20053;-75
2023/05/07 14:06:23;;;;;;;17.23;15.35;;;;;;;;;;5054229;28;20075;-75
2023/05/07 14:08:52;;;;;;;18.23;16.33;;;;;;;;;;5057045;28;20049;-75
2023/05/07 14:11:21;;;;;;;17.67;15.38;;;;;;;;;;5062004;28;20044;-75
2023/05/07 14:13:47;;;;;;;18.52;16.52;;;;;;;;;;5062249;28;20103;-75
2023/05/07 14:16:13;;;;;;;18.58;16.50;;;;;;;;;;5066853;28;20087;-76